createdAt,value
2023-10-20T00:02:19.207Z,16.70
2023-10-20T00:04:58.909Z,16.88
2023-10-20T00:07:39.197Z,17.23
2023-10-20T00:10:19.235Z,16.90
2023-10-20T00:13:01.623Z,18.45
2023-10-20T00:15:41.235Z,18.90
2023-10-20T00:18:20.907Z,16.60
2023-10-20T00:21:00.571Z,18.15
2023-10-20T00:23:40.046Z,17.65
2023-10-20T00:26:19.779Z,16.63
2023-10-20T00:28:59.359Z,15.45
2023-10-20T00:31:39.957Z,18.10
2023-10-20T00:34:19.620Z,16.35
2023-10-20T00:36:59.162Z,15.60
2023-10-20T00:39:38.891Z,16.17
2023-10-20T00:42:18.621Z,15.80
2023-10-20T00:44:58.137Z,14.55
2023-10-20T00:47:41.393Z,14.93
2023-10-20T00:50:21.759Z,15.68
2023-10-20T00:53:02.678Z,16.50
2023-10-20T00:55:43.033Z,15.75
2023-10-20T00:58:22.991Z,17.10
2023-10-20T01:01:05.649Z,15.93
2023-10-20T01:03:45.767Z,16.33
2023-10-20T01:06:26.565Z,16.48
2023-10-20T01:09:14.096Z,15.98
2023-10-20T01:11:54.276Z,16.92
2023-10-20T01:14:34.363Z,15.95
2023-10-20T01:17:13.981Z,14.43
2023-10-20T01:19:55.355Z,14.70
2023-10-20T01:22:36.196Z,15.50
2023-10-20T01:25:18.042Z,15.23
2023-10-20T01:27:57.723Z,15.77
2023-10-20T01:30:37.327Z,15.02
2023-10-20T01:33:19.459Z,15.73
2023-10-20T01:36:01.147Z,15.05
2023-10-20T01:38:40.767Z,15.45
2023-10-20T01:41:25.631Z,17.33
2023-10-20T01:44:05.329Z,16.70
2023-10-20T01:46:50.844Z,16.63
2023-10-20T01:49:30.410Z,16.10
2023-10-20T01:52:10.184Z,17.63
2023-10-20T01:54:52.555Z,16.98
2023-10-20T01:57:32.109Z,15.50
2023-10-20T02:00:15.114Z,16.33
2023-10-20T02:02:55.032Z,16.27
2023-10-20T02:08:14.711Z,15.90
2023-10-20T02:10:54.373Z,15.20
2023-10-20T02:13:36.571Z,16.33
2023-10-20T02:16:16.885Z,17.27
2023-10-20T02:19:00.439Z,14.68
2023-10-20T02:21:40.387Z,16.52
2023-10-20T02:24:20.012Z,15.48
2023-10-20T02:27:00.061Z,15.07
2023-10-20T02:29:39.744Z,16.25
2023-10-20T02:32:19.333Z,14.98
2023-10-20T02:34:58.893Z,16.55
2023-10-20T02:37:38.665Z,14.15
2023-10-20T02:40:18.379Z,16.38
2023-10-20T02:42:57.961Z,17.13
2023-10-20T02:45:39.810Z,15.48
2023-10-20T02:48:19.770Z,16.05
2023-10-20T02:50:59.347Z,17.25
2023-10-20T02:53:41.873Z,15.02
2023-10-20T02:56:24.884Z,15.57
2023-10-20T02:59:05.305Z,15.35
2023-10-20T03:01:47.331Z,15.70
2023-10-20T03:04:27.107Z,14.48
2023-10-20T03:07:06.750Z,16.17
2023-10-20T03:09:46.316Z,16.88
2023-10-20T03:12:25.930Z,16.42
2023-10-20T03:15:07.848Z,15.80
2023-10-20T03:17:47.618Z,16.52
2023-10-20T03:20:31.625Z,16.35
2023-10-20T03:23:11.288Z,16.25
2023-10-20T03:25:51.089Z,15.98
2023-10-20T03:28:30.812Z,17.15
2023-10-20T03:31:10.446Z,16.08
2023-10-20T03:33:50.147Z,16.73
2023-10-20T03:36:29.845Z,17.77
2023-10-20T03:39:21.942Z,16.15
2023-10-20T03:42:03.807Z,17.30
2023-10-20T03:44:44.865Z,15.55
2023-10-20T03:47:30.538Z,16.77
2023-10-20T03:50:20.910Z,16.88
2023-10-20T03:52:59.758Z,16.45
2023-10-20T03:55:39.264Z,18.30
2023-10-20T03:58:21.531Z,15.93
2023-10-20T04:03:50.991Z,13.93
2023-10-20T04:06:30.300Z,16.08
2023-10-20T04:09:11.055Z,17.58
2023-10-20T04:11:51.148Z,16.05
2023-10-20T04:14:31.548Z,15.43
2023-10-20T04:17:10.958Z,15.88
2023-10-20T04:19:50.869Z,14.40
2023-10-20T04:22:31.193Z,16.92
2023-10-20T04:25:14.143Z,15.45
2023-10-20T04:28:02.361Z,17.10
2023-10-20T04:31:00.748Z,15.23
2023-10-20T04:33:59.252Z,15.93
2023-10-20T04:36:58.777Z,17.88
2023-10-20T04:39:57.494Z,14.90
2023-10-20T04:42:36.993Z,17.33
2023-10-20T04:45:27.383Z,16.58
2023-10-20T04:48:45.150Z,16.83
2023-10-20T04:51:43.476Z,16.48
2023-10-20T04:54:45.768Z,14.60
2023-10-20T04:57:25.433Z,14.82
2023-10-20T05:00:25.657Z,15.55
2023-10-20T05:03:05.892Z,14.77
2023-10-20T05:05:54.773Z,15.07
2023-10-20T05:08:34.402Z,16.50
2023-10-20T05:11:14.035Z,15.40
2023-10-20T05:13:56.627Z,13.40
2023-10-20T05:16:36.314Z,15.57
2023-10-20T05:19:16.101Z,14.27
2023-10-20T05:21:56.812Z,13.73
2023-10-20T05:24:36.451Z,12.40
2023-10-20T05:27:16.183Z,15.25
2023-10-20T05:29:56.038Z,13.35
2023-10-20T05:32:36.376Z,13.18
2023-10-20T05:35:16.010Z,11.57
2023-10-20T05:37:56.400Z,12.88
2023-10-20T05:40:40.629Z,13.88
2023-10-20T05:43:20.255Z,12.15
2023-10-20T05:45:59.908Z,10.48
2023-10-20T05:48:39.898Z,11.63
2023-10-20T05:51:19.943Z,10.32
2023-10-20T05:53:59.604Z,10.23
2023-10-20T05:56:39.793Z,8.68
2023-10-20T05:59:19.240Z,9.82
2023-10-20T06:02:00.923Z,8.75
2023-10-20T06:04:40.586Z,8.65
2023-10-20T06:07:23.124Z,8.20
2023-10-20T06:10:02.762Z,7.90
2023-10-20T06:12:42.516Z,7.95
2023-10-20T06:15:23.090Z,8.50
2023-10-20T06:18:02.804Z,7.30
2023-10-20T06:20:43.056Z,7.15
2023-10-20T06:23:23.917Z,7.50
2023-10-20T06:26:03.604Z,7.57
2023-10-20T06:28:47.012Z,7.82
2023-10-20T06:31:30.119Z,8.07
2023-10-20T06:34:13.203Z,8.27
2023-10-20T06:37:10.076Z,7.82
2023-10-20T06:39:49.782Z,9.68
2023-10-20T06:42:30.010Z,8.43
2023-10-20T06:45:11.721Z,8.85
2023-10-20T06:47:51.856Z,8.60
2023-10-20T06:50:33.400Z,8.48
2023-10-20T06:53:15.457Z,9.52
2023-10-20T06:56:13.948Z,9.05
2023-10-20T06:58:42.789Z,9.85
2023-10-20T07:01:22.525Z,8.45
2023-10-20T07:04:07.910Z,9.05
2023-10-20T07:06:47.666Z,8.68
2023-10-20T07:09:27.967Z,9.05
2023-10-20T07:12:14.713Z,10.77
2023-10-20T07:14:50.825Z,9.15
2023-10-20T07:17:30.627Z,9.02
2023-10-20T07:20:10.945Z,9.00
2023-10-20T07:22:50.484Z,9.20
2023-10-20T07:25:30.162Z,9.70
2023-10-20T07:28:09.759Z,8.80
2023-10-20T07:30:49.978Z,9.20
2023-10-20T07:33:33.255Z,9.27
2023-10-20T07:36:12.868Z,8.88
2023-10-20T07:38:52.535Z,9.85
2023-10-20T07:41:32.113Z,10.30
2023-10-20T07:44:20.214Z,9.55
2023-10-20T07:46:59.762Z,8.43
2023-10-20T07:49:40.574Z,7.30
2023-10-20T07:52:20.751Z,8.55
2023-10-20T07:55:00.448Z,8.20
2023-10-20T07:57:40.106Z,7.05
2023-10-20T08:00:20.155Z,7.43
2023-10-20T08:03:00.208Z,7.05
2023-10-20T08:05:41.647Z,6.80
2023-10-20T08:08:20.988Z,5.95
2023-10-20T08:11:00.876Z,6.03
2023-10-20T08:13:42.631Z,5.45
2023-10-20T08:16:23.383Z,5.93
2023-10-20T08:19:03.211Z,5.30
2023-10-20T08:21:47.727Z,4.80
2023-10-20T08:24:27.415Z,4.05
2023-10-20T08:27:07.169Z,4.88
2023-10-20T08:29:56.757Z,4.40
2023-10-20T08:32:38.200Z,3.45
2023-10-20T08:35:17.871Z,4.22
2023-10-20T08:38:08.760Z,3.67
2023-10-20T08:41:08.129Z,3.92
2023-10-20T08:43:30.058Z,3.83
2023-10-20T08:46:11.471Z,4.03
2023-10-20T08:48:51.345Z,3.90
2023-10-20T08:51:33.125Z,4.07
2023-10-20T08:54:23.942Z,3.67
2023-10-20T08:57:12.037Z,3.50
2023-10-20T08:59:54.887Z,4.28
2023-10-20T09:02:41.383Z,3.53
2023-10-20T09:05:24.593Z,3.85
2023-10-20T09:08:04.947Z,2.58
2023-10-20T09:10:47.181Z,2.50
2023-10-20T09:13:39.415Z,2.28
2023-10-20T09:16:19.264Z,2.30
2023-10-20T09:18:58.822Z,2.40
2023-10-20T09:21:43.519Z,2.78
2023-10-20T09:24:29.398Z,2.58
2023-10-20T09:27:10.425Z,2.33
2023-10-20T09:29:49.421Z,2.58
2023-10-20T09:32:32.217Z,2.53
2023-10-20T09:35:12.295Z,2.25
2023-10-20T09:37:55.790Z,2.47
2023-10-20T09:40:36.039Z,2.28
2023-10-20T09:43:30.282Z,2.60
2023-10-20T09:49:30.093Z,2.25
2023-10-20T09:52:12.349Z,2.28
2023-10-20T09:54:54.343Z,2.60
2023-10-20T09:57:34.606Z,2.20
2023-10-20T10:00:14.888Z,2.53
2023-10-20T10:03:00.752Z,2.28
2023-10-20T10:05:45.085Z,2.00
2023-10-20T10:08:23.297Z,2.10
2023-10-20T10:11:22.379Z,2.47
2023-10-20T10:14:06.598Z,1.90
2023-10-20T10:17:00.024Z,2.38
2023-10-20T10:19:37.315Z,2.20
2023-10-20T10:22:17.885Z,1.70
2023-10-20T10:25:02.272Z,1.77
2023-10-20T10:27:44.107Z,1.58
2023-10-20T10:30:31.370Z,1.45
2023-10-20T10:33:14.025Z,1.60
2023-10-20T10:36:08.691Z,2.00
2023-10-20T10:38:48.941Z,1.60
2023-10-20T10:41:29.285Z,1.40
2023-10-20T10:44:10.088Z,1.70
2023-10-20T10:46:49.854Z,1.60
2023-10-20T10:49:29.497Z,1.58
2023-10-20T10:52:09.270Z,1.20
2023-10-20T10:54:49.187Z,1.27
2023-10-20T10:57:30.364Z,1.20
2023-10-20T11:00:10.301Z,1.60
2023-10-20T11:02:51.179Z,1.48
2023-10-20T11:05:32.340Z,1.30
2023-10-20T11:08:14.416Z,1.50
2023-10-20T11:10:52.435Z,1.45
2023-10-20T11:13:34.065Z,1.17
2023-10-20T11:16:16.388Z,1.10
2023-10-20T11:18:56.325Z,1.30
2023-10-20T11:21:53.410Z,1.25
2023-10-20T11:24:37.621Z,1.40
2023-10-20T11:29:58.914Z,1.40
2023-10-20T11:32:34.502Z,1.40
2023-10-20T11:35:14.054Z,1.52
2023-10-20T11:37:55.232Z,1.48
2023-10-20T11:40:34.630Z,1.45
2023-10-20T11:43:14.188Z,1.40
2023-10-20T11:45:54.930Z,1.48
2023-10-20T11:48:34.625Z,1.40
2023-10-20T11:51:15.032Z,1.40
2023-10-20T11:53:54.929Z,1.00
2023-10-20T11:56:36.308Z,1.20
2023-10-20T11:59:17.929Z,1.05
2023-10-20T12:01:57.576Z,1.20
2023-10-20T12:04:37.458Z,1.00
2023-10-20T12:07:16.520Z,1.00
2023-10-20T12:09:58.123Z,1.00
2023-10-20T12:12:40.924Z,1.08
2023-10-20T12:15:23.516Z,1.00
2023-10-20T12:18:03.292Z,1.20
2023-10-20T12:20:43.190Z,1.20
2023-10-20T12:23:22.602Z,1.10
2023-10-20T12:26:04.572Z,1.00
2023-10-20T12:28:44.238Z,1.08
2023-10-20T12:31:27.800Z,0.90
2023-10-20T12:34:07.324Z,1.10
2023-10-20T12:36:47.518Z,1.20
2023-10-20T12:39:29.431Z,1.20
2023-10-20T12:42:09.106Z,1.13
2023-10-20T12:44:48.824Z,1.05
2023-10-20T12:47:28.757Z,1.00
2023-10-20T12:50:09.726Z,1.20
2023-10-20T12:52:52.297Z,1.20
2023-10-20T12:58:12.208Z,1.80
2023-10-20T13:00:51.837Z,1.25
2023-10-20T13:03:31.861Z,1.30
2023-10-20T13:06:12.047Z,1.20
2023-10-20T13:08:52.644Z,1.13
2023-10-20T13:11:32.258Z,0.82
2023-10-20T13:14:11.904Z,1.23
2023-10-20T13:16:52.020Z,1.10
2023-10-20T13:19:31.750Z,1.08
2023-10-20T13:22:13.715Z,1.27
2023-10-20T13:24:54.008Z,1.20
2023-10-20T13:27:34.516Z,1.10
2023-10-20T13:30:14.411Z,1.00
2023-10-20T13:32:54.770Z,1.00
2023-10-20T13:35:42.326Z,1.00
2023-10-20T13:38:32.774Z,1.08
2023-10-20T13:41:01.390Z,1.02
2023-10-20T13:43:43.064Z,1.05
2023-10-20T13:46:22.615Z,0.80
2023-10-20T13:49:02.233Z,0.80
2023-10-20T13:51:42.126Z,0.90
2023-10-20T13:54:21.645Z,0.80
2023-10-20T13:57:02.060Z,0.90
2023-10-20T13:59:50.133Z,0.80
2023-10-20T14:02:38.441Z,0.70
2023-10-20T14:05:20.440Z,0.40
2023-10-20T14:08:04.854Z,0.60
2023-10-20T14:10:44.446Z,0.55
2023-10-20T14:13:24.054Z,0.60
2023-10-20T14:16:04.803Z,0.70
2023-10-20T14:18:44.284Z,0.52
2023-10-20T14:21:24.676Z,0.50
2023-10-20T14:24:04.548Z,0.90
2023-10-20T14:26:52.772Z,0.80
2023-10-20T14:29:41.801Z,0.60
2023-10-20T14:32:30.160Z,0.70
2023-10-20T14:35:18.334Z,0.60
2023-10-20T14:38:07.907Z,0.52
2023-10-20T14:41:08.465Z,0.60
2023-10-20T14:43:56.681Z,0.57
2023-10-20T14:46:36.059Z,0.77
2023-10-20T14:49:15.687Z,1.02
2023-10-20T14:51:55.134Z,0.60
2023-10-20T14:54:34.887Z,0.80
2023-10-20T14:57:14.352Z,0.60
2023-10-20T14:59:54.034Z,0.77
2023-10-20T15:02:33.563Z,0.70
2023-10-20T15:05:13.079Z,0.90
2023-10-20T15:07:52.574Z,1.00
2023-10-20T15:10:32.153Z,0.50
2023-10-20T15:13:11.734Z,0.90
2023-10-20T15:15:51.346Z,1.15
2023-10-20T15:18:31.734Z,0.88
2023-10-20T15:21:11.571Z,0.98
2023-10-20T15:23:55.226Z,1.50
2023-10-20T15:26:34.923Z,1.58
2023-10-20T15:29:14.594Z,1.33
2023-10-20T15:31:54.414Z,1.40
2023-10-20T15:34:33.936Z,1.40
2023-10-20T15:37:13.570Z,1.40
2023-10-20T15:40:00.780Z,1.30
2023-10-20T15:42:33.289Z,1.15
2023-10-20T15:45:13.111Z,1.40
2023-10-20T15:47:52.827Z,1.50
2023-10-20T15:50:34.148Z,1.25
2023-10-20T15:53:13.521Z,1.38
2023-10-20T15:55:56.144Z,1.45
2023-10-20T15:58:36.939Z,1.25
2023-10-20T16:01:16.643Z,1.27
2023-10-20T16:03:56.371Z,1.35
2023-10-20T16:06:35.744Z,1.40
2023-10-20T16:09:17.523Z,1.58
2023-10-20T16:11:55.239Z,1.63
2023-10-20T16:14:34.934Z,1.33
2023-10-20T16:17:14.512Z,1.40
2023-10-20T16:19:54.092Z,1.50
2023-10-20T16:22:33.803Z,1.50
2023-10-20T16:25:13.539Z,1.80
2023-10-20T16:27:53.222Z,1.90
2023-10-20T16:30:32.936Z,1.70
2023-10-20T16:33:14.413Z,1.88
2023-10-20T16:35:56.994Z,1.80
2023-10-20T16:38:36.965Z,2.00
2023-10-20T16:41:19.214Z,2.15
2023-10-20T16:43:58.868Z,2.53
2023-10-20T16:49:21.151Z,2.30
2023-10-20T16:52:00.682Z,2.83
2023-10-20T16:54:40.463Z,2.15
2023-10-20T16:57:21.236Z,2.47
2023-10-20T17:00:00.988Z,2.40
2023-10-20T17:02:40.746Z,2.60
2023-10-20T17:05:20.324Z,2.45
2023-10-20T17:08:00.294Z,2.78
2023-10-20T17:10:41.406Z,2.58
2023-10-20T17:13:21.130Z,2.80
2023-10-20T17:16:19.483Z,2.65
2023-10-20T17:19:00.461Z,2.95
2023-10-20T17:21:40.116Z,2.85
2023-10-20T17:24:19.226Z,3.67
2023-10-20T17:26:57.589Z,3.55
2023-10-20T17:29:37.452Z,3.90
2023-10-20T17:32:17.394Z,3.40
2023-10-20T17:34:57.112Z,3.70
2023-10-20T17:40:17.129Z,5.15
2023-10-20T17:42:56.739Z,4.28
2023-10-20T17:45:41.128Z,4.50
2023-10-20T17:48:20.744Z,4.85
2023-10-20T17:51:01.927Z,4.95
2023-10-20T17:53:42.240Z,4.55
2023-10-20T17:56:21.966Z,4.93
2023-10-20T17:59:01.677Z,5.53
2023-10-20T18:01:41.790Z,6.30
2023-10-20T18:04:21.930Z,6.28
2023-10-20T18:07:01.755Z,7.05
2023-10-20T18:09:41.362Z,6.63
2023-10-20T18:12:26.667Z,6.35
2023-10-20T18:15:06.834Z,7.60
2023-10-20T18:17:46.551Z,7.40
2023-10-20T18:20:26.041Z,7.05
2023-10-20T18:23:06.591Z,6.40
2023-10-20T18:25:46.274Z,7.43
2023-10-20T18:28:25.907Z,7.20
2023-10-20T18:31:16.843Z,6.93
2023-10-20T18:33:58.732Z,6.82
2023-10-20T18:36:38.956Z,7.38
2023-10-20T18:39:23.357Z,6.88
2023-10-20T18:42:05.838Z,7.38
2023-10-20T18:44:45.269Z,8.25
2023-10-20T18:47:24.816Z,6.72
2023-10-20T18:50:05.290Z,7.53
2023-10-20T18:52:44.966Z,7.75
2023-10-20T18:55:24.778Z,6.93
2023-10-20T18:58:06.459Z,6.20
2023-10-20T19:00:46.125Z,6.78
2023-10-20T19:03:27.886Z,5.95
2023-10-20T19:06:10.640Z,5.97
2023-10-20T19:08:49.498Z,6.10
2023-10-20T19:11:29.167Z,7.55
2023-10-20T19:14:09.405Z,5.53
2023-10-20T19:16:49.824Z,5.68
2023-10-20T19:19:29.527Z,5.35
2023-10-20T19:22:09.265Z,5.60
2023-10-20T19:24:49.419Z,6.97
2023-10-20T19:27:36.654Z,6.90
2023-10-20T19:30:16.529Z,6.22
2023-10-20T19:32:56.270Z,6.70
2023-10-20T19:35:35.785Z,6.40
2023-10-20T19:38:15.375Z,5.40
2023-10-20T19:40:55.167Z,4.90
2023-10-20T19:43:34.798Z,5.60
2023-10-20T19:46:15.324Z,5.95
2023-10-20T19:48:55.009Z,6.35
2023-10-20T19:51:34.730Z,6.20
2023-10-20T19:54:14.459Z,5.97
2023-10-20T19:56:54.313Z,6.18
2023-10-20T19:59:34.416Z,6.50
2023-10-20T20:02:17.122Z,5.32
2023-10-20T20:04:56.813Z,6.05
2023-10-20T20:07:37.349Z,5.50
2023-10-20T20:10:17.034Z,6.63
2023-10-20T20:13:05.011Z,6.00
2023-10-20T20:15:51.907Z,5.57
2023-10-20T20:18:34.624Z,6.20
2023-10-20T20:21:14.218Z,6.18
2023-10-20T20:23:53.996Z,5.97
2023-10-20T20:26:33.775Z,6.20
2023-10-20T20:29:14.904Z,5.47
2023-10-20T20:31:59.896Z,5.85
2023-10-20T20:34:38.754Z,5.50
2023-10-20T20:37:18.458Z,5.35
2023-10-20T20:39:58.510Z,5.35
2023-10-20T20:42:38.239Z,6.10
2023-10-20T20:45:18.116Z,5.75
2023-10-20T20:47:59.052Z,4.80
2023-10-20T20:50:41.916Z,5.20
2023-10-20T20:53:21.576Z,5.57
2023-10-20T20:56:01.310Z,6.03
2023-10-20T20:58:41.351Z,5.00
2023-10-20T21:01:21.459Z,4.90
2023-10-20T21:04:02.237Z,4.80
2023-10-20T21:06:41.603Z,4.50
2023-10-20T21:09:24.595Z,4.35
2023-10-20T21:12:05.733Z,4.45
2023-10-20T21:14:48.490Z,5.10
2023-10-20T21:17:28.351Z,4.53
2023-10-20T21:20:09.930Z,4.70
2023-10-20T21:22:54.760Z,4.40
2023-10-20T21:25:40.578Z,4.57
2023-10-20T21:28:20.297Z,5.13
2023-10-20T21:31:04.543Z,4.28
2023-10-20T21:33:44.355Z,4.07
2023-10-20T21:36:24.059Z,4.70
2023-10-20T21:39:07.359Z,4.35
2023-10-20T21:41:46.975Z,4.07
2023-10-20T21:44:28.888Z,4.82
2023-10-20T21:47:08.618Z,4.97
2023-10-20T21:49:48.422Z,5.10
2023-10-20T21:52:28.492Z,4.65
2023-10-20T21:55:09.725Z,4.65
2023-10-20T21:57:49.351Z,3.83
2023-10-20T22:00:29.178Z,4.38
2023-10-20T22:03:08.939Z,4.15
2023-10-20T22:05:48.713Z,3.97
2023-10-20T22:08:28.763Z,4.38
2023-10-20T22:11:08.463Z,4.18
2023-10-20T22:13:55.443Z,4.30
2023-10-20T22:16:35.110Z,4.45
2023-10-20T22:19:14.699Z,3.72
2023-10-20T22:21:54.316Z,3.47
2023-10-20T22:24:34.059Z,4.13
2023-10-20T22:27:13.760Z,4.35
2023-10-20T22:29:53.408Z,3.78
2023-10-20T22:32:32.969Z,4.68
2023-10-20T22:35:15.333Z,3.85
2023-10-20T22:37:55.230Z,3.72
2023-10-20T22:40:34.887Z,3.80
2023-10-20T22:43:14.582Z,4.40
2023-10-20T22:45:56.786Z,4.28
2023-10-20T22:48:36.376Z,3.63
2023-10-20T22:51:16.079Z,3.85
2023-10-20T22:53:55.788Z,4.28
2023-10-20T22:56:35.405Z,4.20
2023-10-20T22:59:15.404Z,3.50
2023-10-20T23:01:55.055Z,3.75
2023-10-20T23:04:34.702Z,3.85
2023-10-20T23:07:14.263Z,3.97
2023-10-20T23:09:53.885Z,3.65
2023-10-20T23:12:34.663Z,3.35
2023-10-20T23:15:14.178Z,3.83
2023-10-20T23:17:54.086Z,3.78
2023-10-20T23:20:33.609Z,3.35
2023-10-20T23:23:13.292Z,4.03
2023-10-20T23:25:52.933Z,3.90
2023-10-20T23:28:32.566Z,3.85
2023-10-20T23:31:12.551Z,4.13
2023-10-20T23:33:52.227Z,4.18
2023-10-20T23:36:31.807Z,4.70
2023-10-20T23:39:12.795Z,4.10
2023-10-20T23:41:52.331Z,3.60
2023-10-20T23:44:34.373Z,3.42
2023-10-20T23:47:13.947Z,3.95
2023-10-20T23:49:53.678Z,3.72
2023-10-20T23:52:34.024Z,3.47
2023-10-20T23:55:13.607Z,3.67
2023-10-20T23:57:53.246Z,3.60
